sensor_id;sensor_type;location;lat;lon;timestamp;pressure;altitude;pressure_sealevel;temperature;humidity
48077;BME280;33854;57.708;12.008;2022-10-22T00:01:31;100662.47;;;8.74;100.00
48077;BME280;33854;57.708;12.008;2022-10-22T00:03:57;100658.97;;;8.75;100.00
48077;BME280;33854;57.708;12.008;2022-10-22T00:06:22;100663.13;;;8.79;100.00
48077;BME280;33854;57.708;12.008;2022-10-22T00:08:48;100645.97;;;8.75;100.00
48077;BME280;33854;57.708;12.008;2022-10-22T00:11:15;100591.03;;;8.81;100.00
48077;BME280;33854;57.708;12.008;2022-10-22T00:13:41;100558.28;;;8.77;100.00
48077;BME280;33854;57.708;12.008;2022-10-22T00:16:08;100527.69;;;8.82;100.00
48077;BME280;33854;57.708;12.008;2022-10-22T00:18:34;100520.78;;;8.81;100.00
48077;BME280;33854;57.708;12.008;2022-10-22T00:20:59;100515.72;;;8.78;100.00
48077;BME280;33854;57.708;12.008;2022-10-22T00:23:25;100519.13;;;8.80;100.00
48077;BME280;33854;57.708;12.008;2022-10-22T00:25:52;100513.91;;;8.80;100.00
48077;BME280;33854;57.708;12.008;2022-10-22T00:28:17;100503.63;;;8.77;100.00
48077;BME280;33854;57.708;12.008;2022-10-22T00:30:43;100489.78;;;8.77;100.00
48077;BME280;33854;57.708;12.008;2022-10-22T00:33:08;100489.03;;;8.73;100.00
48077;BME280;33854;57.708;12.008;2022-10-22T00:35:34;100486.56;;;8.70;100.00
48077;BME280;33854;57.708;12.008;2022-10-22T00:37:59;100477.91;;;8.70;100.00
48077;BME280;33854;57.708;12.008;2022-10-22T00:40:25;100495.63;;;8.82;100.00
48077;BME280;33854;57.708;12.008;2022-10-22T00:42:50;100494.59;;;8.86;100.00
48077;BME280;33854;57.708;12.008;2022-10-22T00:45:24;100462.84;;;8.78;100.00
48077;BME280;33854;57.708;12.008;2022-10-22T00:48:09;100473.78;;;8.86;100.00
48077;BME280;33854;57.708;12.008;2022-10-22T00:50:43;100464.13;;;8.88;100.00
48077;BME280;33854;57.708;12.008;2022-10-22T00:53:16;100452.88;;;8.87;100.00
48077;BME280;33854;57.708;12.008;2022-10-22T00:55:44;100451.84;;;8.91;100.00
48077;BME280;33854;57.708;12.008;2022-10-22T00:58:11;100443.13;;;8.92;100.00
48077;BME280;33854;57.708;12.008;2022-10-22T01:00:37;100437.00;;;8.93;100.00
48077;BME280;33854;57.708;12.008;2022-10-22T01:03:03;100425.81;;;8.91;100.00
48077;BME280;33854;57.708;12.008;2022-10-22T01:05:32;100423.97;;;8.93;100.00
48077;BME280;33854;57.708;12.008;2022-10-22T01:08:04;100417.03;;;8.94;100.00
48077;BME280;33854;57.708;12.008;2022-10-22T01:10:42;100417.75;;;8.97;100.00
48077;BME280;33854;57.708;12.008;2022-10-22T01:16:09;100403.25;;;8.92;100.00
48077;BME280;33854;57.708;12.008;2022-10-22T01:21:54;100395.44;;;8.92;100.00
48077;BME280;33854;57.708;12.008;2022-10-22T01:24:35;100386.84;;;8.90;100.00
48077;BME280;33854;57.708;12.008;2022-10-22T01:29:50;100392.69;;;8.95;100.00
48077;BME280;33854;57.708;12.008;2022-10-22T01:32:21;100391.00;;;8.94;100.00
48077;BME280;33854;57.708;12.008;2022-10-22T01:34:57;100380.72;;;8.91;100.00
48077;BME280;33854;57.708;12.008;2022-10-22T01:37:29;100393.47;;;8.97;100.00
48077;BME280;33854;57.708;12.008;2022-10-22T01:39:58;100383.41;;;8.89;100.00
48077;BME280;33854;57.708;12.008;2022-10-22T01:42:24;100385.78;;;8.94;100.00
48077;BME280;33854;57.708;12.008;2022-10-22T01:44:50;100387.53;;;8.93;100.00
48077;BME280;33854;57.708;12.008;2022-10-22T01:47:38;100387.53;;;8.93;100.00
48077;BME280;33854;57.708;12.008;2022-10-22T01:50:13;100388.53;;;8.91;100.00
48077;BME280;33854;57.708;12.008;2022-10-22T02:00:57;100402.25;;;8.94;100.00
48077;BME280;33854;57.708;12.008;2022-10-22T02:03:40;100412.72;;;8.93;100.00
48077;BME280;33854;57.708;12.008;2022-10-22T02:06:15;100414.41;;;8.94;100.00
48077;BME280;33854;57.708;12.008;2022-10-22T02:08:42;100426.59;;;8.93;100.00
48077;BME280;33854;57.708;12.008;2022-10-22T02:11:08;100437.94;;;8.92;100.00
48077;BME280;33854;57.708;12.008;2022-10-22T02:13:40;100452.59;;;8.93;100.00
48077;BME280;33854;57.708;12.008;2022-10-22T02:16:08;100455.22;;;8.93;100.00
48077;BME280;33854;57.708;12.008;2022-10-22T02:18:37;100464.78;;;8.93;100.00
48077;BME280;33854;57.708;12.008;2022-10-22T02:21:04;100463.88;;;8.94;100.00
48077;BME280;33854;57.708;12.008;2022-10-22T02:23:31;100473.38;;;8.95;100.00
48077;BME280;33854;57.708;12.008;2022-10-22T02:26:06;100469.47;;;8.85;100.00
48077;BME280;33854;57.708;12.008;2022-10-22T02:31:20;100515.06;;;8.93;100.00
48077;BME280;33854;57.708;12.008;2022-10-22T02:33:50;100522.88;;;8.93;100.00
48077;BME280;33854;57.708;12.008;2022-10-22T02:36:17;100527.19;;;8.94;100.00
48077;BME280;33854;57.708;12.008;2022-10-22T02:38:45;100530.69;;;8.93;100.00
48077;BME280;33854;57.708;12.008;2022-10-22T02:41:11;100529.06;;;8.91;100.00
48077;BME280;33854;57.708;12.008;2022-10-22T02:43:41;100534.41;;;8.88;100.00
48077;BME280;33854;57.708;12.008;2022-10-22T02:46:08;100542.16;;;8.89;100.00
48077;BME280;33854;57.708;12.008;2022-10-22T02:48:34;100549.13;;;8.89;100.00
48077;BME280;33854;57.708;12.008;2022-10-22T02:50:59;100545.56;;;8.90;100.00
48077;BME280;33854;57.708;12.008;2022-10-22T02:53:25;100549.97;;;8.89;100.00
48077;BME280;33854;57.708;12.008;2022-10-22T02:55:50;100555.09;;;8.91;100.00
48077;BME280;33854;57.708;12.008;2022-10-22T02:58:15;100551.63;;;8.90;100.00
48077;BME280;33854;57.708;12.008;2022-10-22T03:00:41;100552.47;;;8.91;100.00
48077;BME280;33854;57.708;12.008;2022-10-22T03:03:06;100551.59;;;8.92;100.00
48077;BME280;33854;57.708;12.008;2022-10-22T03:05:32;100543.94;;;8.87;100.00
48077;BME280;33854;57.708;12.008;2022-10-22T03:07:57;100551.63;;;8.90;100.00
48077;BME280;33854;57.708;12.008;2022-10-22T03:10:22;100546.56;;;8.87;100.00
48077;BME280;33854;57.708;12.008;2022-10-22T03:12:47;100549.97;;;8.89;100.00
48077;BME280;33854;57.708;12.008;2022-10-22T03:15:13;100543.91;;;8.89;100.00
48077;BME280;33854;57.708;12.008;2022-10-22T03:17:38;100536.94;;;8.89;100.00
48077;BME280;33854;57.708;12.008;2022-10-22T03:20:04;100536.16;;;8.87;100.00
48077;BME280;33854;57.708;12.008;2022-10-22T03:22:32;100536.16;;;8.87;100.00
48077;BME280;33854;57.708;12.008;2022-10-22T03:24:59;100527.69;;;8.82;100.00
48077;BME280;33854;57.708;12.008;2022-10-22T03:27:28;100528.34;;;8.87;100.00
48077;BME280;33854;57.708;12.008;2022-10-22T03:29:54;100539.56;;;8.89;100.00
48077;BME280;33854;57.708;12.008;2022-10-22T03:32:20;100542.19;;;8.88;100.00
48077;BME280;33854;57.708;12.008;2022-10-22T03:34:46;100543.19;;;8.85;100.00
48077;BME280;33854;57.708;12.008;2022-10-22T03:37:11;100541.47;;;8.84;100.00
48077;BME280;33854;57.708;12.008;2022-10-22T03:39:37;100532.97;;;8.81;100.00
48077;BME280;33854;57.708;12.008;2022-10-22T03:42:04;100540.56;;;8.85;100.00
48077;BME280;33854;57.708;12.008;2022-10-22T03:44:30;100542.53;;;8.80;100.00
48077;BME280;33854;57.708;12.008;2022-10-22T03:46:56;100545.13;;;8.80;100.00
48077;BME280;33854;57.708;12.008;2022-10-22T03:49:21;100552.09;;;8.80;100.00
48077;BME280;33854;57.708;12.008;2022-10-22T03:51:47;100561.66;;;8.79;100.00
48077;BME280;33854;57.708;12.008;2022-10-22T03:54:12;100550.59;;;8.74;100.00
48077;BME280;33854;57.708;12.008;2022-10-22T03:56:39;100563.47;;;8.77;100.00
48077;BME280;33854;57.708;12.008;2022-10-22T03:59:04;100561.84;;;8.75;100.00
48077;BME280;33854;57.708;12.008;2022-10-22T04:01:30;100574.91;;;8.73;100.00
48077;BME280;33854;57.708;12.008;2022-10-22T04:03:57;100582.66;;;8.75;100.00
48077;BME280;33854;57.708;12.008;2022-10-22T04:06:22;100588.75;;;8.74;100.00
48077;BME280;33854;57.708;12.008;2022-10-22T04:08:48;100586.25;;;8.72;100.00
48077;BME280;33854;57.708;12.008;2022-10-22T04:11:14;100589.75;;;8.71;100.00
48077;BME280;33854;57.708;12.008;2022-10-22T04:13:40;100596.78;;;8.69;100.00
48077;BME280;33854;57.708;12.008;2022-10-22T04:18:37;100585.44;;;8.70;100.00
48077;BME280;33854;57.708;12.008;2022-10-22T04:21:03;100588.88;;;8.71;100.00
48077;BME280;33854;57.708;12.008;2022-10-22T04:23:28;100576.78;;;8.70;100.00
48077;BME280;33854;57.708;12.008;2022-10-22T04:26:02;100588.13;;;8.69;100.00
48077;BME280;33854;57.708;12.008;2022-10-22T04:28:27;100585.56;;;8.67;100.00
48077;BME280;33854;57.708;12.008;2022-10-22T04:30:53;100584.66;;;8.68;100.00
48077;BME280;33854;57.708;12.008;2022-10-22T04:33:19;100592.47;;;8.68;100.00
48077;BME280;33854;57.708;12.008;2022-10-22T04:35:44;100584.66;;;8.68;100.00
48077;BME280;33854;57.708;12.008;2022-10-22T04:38:10;100583.75;;;8.69;100.00
48077;BME280;33854;57.708;12.008;2022-10-22T04:40:36;100579.47;;;8.68;100.00
48077;BME280;33854;57.708;12.008;2022-10-22T04:43:01;100574.13;;;8.71;100.00
48077;BME280;33854;57.708;12.008;2022-10-22T04:45:27;100570.56;;;8.74;100.00
48077;BME280;33854;57.708;12.008;2022-10-22T04:47:52;100553.25;;;8.73;100.00
48077;BME280;33854;57.708;12.008;2022-10-22T04:50:17;100551.50;;;8.73;100.00
48077;BME280;33854;57.708;12.008;2022-10-22T04:52:43;100538.59;;;8.70;100.00
48077;BME280;33854;57.708;12.008;2022-10-22T04:55:08;100522.09;;;8.71;100.00
48077;BME280;33854;57.708;12.008;2022-10-22T04:57:34;100508.22;;;8.71;100.00
48077;BME280;33854;57.708;12.008;2022-10-22T04:59:59;100501.22;;;8.73;100.00
48077;BME280;33854;57.708;12.008;2022-10-22T05:02:25;100491.72;;;8.72;100.00
48077;BME280;33854;57.708;12.008;2022-10-22T05:04:50;100490.03;;;8.71;100.00
48077;BME280;33854;57.708;12.008;2022-10-22T05:07:16;100475.41;;;8.68;100.00
48077;BME280;33854;57.708;12.008;2022-10-22T05:09:41;100463.50;;;8.63;100.00
48077;BME280;33854;57.708;12.008;2022-10-22T05:12:06;100451.25;;;8.65;100.00
48077;BME280;33854;57.708;12.008;2022-10-22T05:14:32;100452.06;;;8.67;100.00
48077;BME280;33854;57.708;12.008;2022-10-22T05:16:57;100445.19;;;8.64;100.00
48077;BME280;33854;57.708;12.008;2022-10-22T05:19:25;100444.25;;;8.67;100.00
48077;BME280;33854;57.708;12.008;2022-10-22T05:21:56;100438.25;;;8.65;100.00
48077;BME280;33854;57.708;12.008;2022-10-22T05:24:23;100437.41;;;8.64;100.00
48077;BME280;33854;57.708;12.008;2022-10-22T05:26:50;100430.44;;;8.65;100.00
48077;BME280;33854;57.708;12.008;2022-10-22T05:29:15;100431.28;;;8.65;100.00
48077;BME280;33854;57.708;12.008;2022-10-22T05:31:41;100427.72;;;8.68;100.00
48077;BME280;33854;57.708;12.008;2022-10-22T05:34:06;100419.88;;;8.69;100.00
48077;BME280;33854;57.708;12.008;2022-10-22T05:36:32;100409.59;;;8.66;100.00
48077;BME280;33854;57.708;12.008;2022-10-22T05:38:57;100410.22;;;8.71;100.00
48077;BME280;33854;57.708;12.008;2022-10-22T05:41:24;100403.41;;;8.69;100.00
48077;BME280;33854;57.708;12.008;2022-10-22T05:43:53;100398.13;;;8.70;100.00
48077;BME280;33854;57.708;12.008;2022-10-22T05:46:21;100390.13;;;8.75;100.00
48077;BME280;33854;57.708;12.008;2022-10-22T05:48:55;100375.50;;;8.72;100.00
48077;BME280;33854;57.708;12.008;2022-10-22T05:51:21;100378.09;;;8.72;100.00
48077;BME280;33854;57.708;12.008;2022-10-22T05:53:50;100370.44;;;8.69;100.00
48077;BME280;33854;57.708;12.008;2022-10-22T05:56:16;100358.41;;;8.67;100.00
48077;BME280;33854;57.708;12.008;2022-10-22T05:58:43;100354.97;;;8.66;100.00
48077;BME280;33854;57.708;12.008;2022-10-22T06:01:13;100356.63;;;8.67;100.00
48077;BME280;33854;57.708;12.008;2022-10-22T06:03:39;100360.94;;;8.68;100.00
48077;BME280;33854;57.708;12.008;2022-10-22T06:06:14;100356.44;;;8.72;100.00
48077;BME280;33854;57.708;12.008;2022-10-22T06:08:41;100360.03;;;8.69;100.00
48077;BME280;33854;57.708;12.008;2022-10-22T06:11:07;100361.66;;;8.72;100.00
48077;BME280;33854;57.708;12.008;2022-10-22T06:13:32;100378.75;;;8.77;100.00
48077;BME280;33854;57.708;12.008;2022-10-22T06:15:58;100374.44;;;8.76;100.00
48077;BME280;33854;57.708;12.008;2022-10-22T06:18:24;100377.00;;;8.78;100.00
48077;BME280;33854;57.708;12.008;2022-10-22T06:20:49;100379.47;;;8.81;100.00
48077;BME280;33854;57.708;12.008;2022-10-22T06:23:15;100376.06;;;8.79;100.00
48077;BME280;33854;57.708;12.008;2022-10-22T06:25:41;100371.69;;;8.79;100.00
48077;BME280;33854;57.708;12.008;2022-10-22T06:28:06;100363.00;;;8.80;100.00
48077;BME280;33854;57.708;12.008;2022-10-22T06:30:32;100367.22;;;8.83;100.00
48077;BME280;33854;57.708;12.008;2022-10-22T06:32:57;100356.72;;;8.84;100.00
48077;BME280;33854;57.708;12.008;2022-10-22T06:35:23;100350.53;;;8.87;100.00
48077;BME280;33854;57.708;12.008;2022-10-22T06:37:48;100347.75;;;8.91;100.00
48077;BME280;33854;57.708;12.008;2022-10-22T06:40:13;100327.28;;;8.84;100.00
48077;BME280;33854;57.708;12.008;2022-10-22T06:42:40;100346.97;;;8.89;100.00
48077;BME280;33854;57.708;12.008;2022-10-22T06:45:06;100347.94;;;8.87;100.00
48077;BME280;33854;57.708;12.008;2022-10-22T06:47:31;100353.09;;;8.88;100.00
48077;BME280;33854;57.708;12.008;2022-10-22T06:49:57;100353.97;;;8.87;100.00
48077;BME280;33854;57.708;12.008;2022-10-22T06:52:23;100354.66;;;8.92;100.00
48077;BME280;33854;57.708;12.008;2022-10-22T06:54:48;100353.72;;;8.93;100.00
48077;BME280;33854;57.708;12.008;2022-10-22T06:57:14;100354.56;;;8.94;100.00
48077;BME280;33854;57.708;12.008;2022-10-22T06:59:39;100362.16;;;8.98;100.00
48077;BME280;33854;57.708;12.008;2022-10-22T07:02:05;100362.16;;;8.98;100.00
48077;BME280;33854;57.708;12.008;2022-10-22T07:04:30;100356.66;;;9.04;100.00
48077;BME280;33854;57.708;12.008;2022-10-22T07:06:56;100359.97;;;9.08;100.00
48077;BME280;33854;57.708;12.008;2022-10-22T07:09:21;100353.16;;;9.05;100.00
48077;BME280;33854;57.708;12.008;2022-10-22T07:11:46;100359.28;;;9.04;100.00
48077;BME280;33854;57.708;12.008;2022-10-22T07:14:13;100364.47;;;9.04;100.00
48077;BME280;33854;57.708;12.008;2022-10-22T07:16:39;100371.38;;;9.05;100.00
48077;BME280;33854;57.708;12.008;2022-10-22T07:19:07;100379.91;;;9.09;100.00
48077;BME280;33854;57.708;12.008;2022-10-22T07:21:32;100383.22;;;9.12;100.00
48077;BME280;33854;57.708;12.008;2022-10-22T07:23:58;100392.69;;;9.13;100.00
48077;BME280;33854;57.708;12.008;2022-10-22T07:26:24;100403.81;;;9.17;100.00
48077;BME280;33854;57.708;12.008;2022-10-22T07:28:51;100414.97;;;9.21;100.00
48077;BME280;33854;57.708;12.008;2022-10-22T07:31:17;100418.31;;;9.23;100.00
48077;BME280;33854;57.708;12.008;2022-10-22T07:33:43;100425.09;;;9.27;100.00
48077;BME280;33854;57.708;12.008;2022-10-22T07:36:11;100434.31;;;9.34;100.00
48077;BME280;33854;57.708;12.008;2022-10-22T07:38:41;100440.28;;;9.36;100.00
48077;BME280;33854;57.708;12.008;2022-10-22T07:41:07;100448.19;;;9.34;100.00
48077;BME280;33854;57.708;12.008;2022-10-22T07:43:32;100439.78;;;9.28;100.00
48077;BME280;33854;57.708;12.008;2022-10-22T07:45:57;100455.22;;;9.32;100.00
48077;BME280;33854;57.708;12.008;2022-10-22T07:48:24;100471.75;;;9.31;100.00
48077;BME280;33854;57.708;12.008;2022-10-22T07:50:50;100476.75;;;9.36;100.00
48077;BME280;33854;57.708;12.008;2022-10-22T07:53:15;100481.00;;;9.38;100.00
48077;BME280;33854;57.708;12.008;2022-10-22T07:55:41;100495.56;;;9.42;100.00
48077;BME280;33854;57.708;12.008;2022-10-22T07:58:06;100502.50;;;9.42;100.00
48077;BME280;33854;57.708;12.008;2022-10-22T08:00:31;100524.06;;;9.45;100.00
48077;BME280;33854;57.708;12.008;2022-10-22T08:02:57;100521.81;;;9.38;100.00
48077;BME280;33854;57.708;12.008;2022-10-22T08:05:22;100549.34;;;9.43;100.00
48077;BME280;33854;57.708;12.008;2022-10-22T08:07:48;100560.41;;;9.48;100.00
48077;BME280;33854;57.708;12.008;2022-10-22T08:10:13;100561.25;;;9.49;100.00
48077;BME280;33854;57.708;12.008;2022-10-22T08:12:39;100580.88;;;9.56;100.00
48077;BME280;33854;57.708;12.008;2022-10-22T08:15:05;100589.25;;;9.64;100.00
48077;BME280;33854;57.708;12.008;2022-10-22T08:17:31;100589.09;;;9.67;100.00
48077;BME280;33854;57.708;12.008;2022-10-22T08:19:56;100600.28;;;9.69;100.00
48077;BME280;33854;57.708;12.008;2022-10-22T08:22:22;100615.06;;;9.68;100.00
48077;BME280;33854;57.708;12.008;2022-10-22T08:24:47;100624.59;;;9.69;100.00
48077;BME280;33854;57.708;12.008;2022-10-22T08:27:13;100634.81;;;9.74;100.00
48077;BME280;33854;57.708;12.008;2022-10-22T08:29:38;100641.00;;;9.71;100.00
48077;BME280;33854;57.708;12.008;2022-10-22T08:32:04;100627.88;;;9.73;100.00
48077;BME280;33854;57.708;12.008;2022-10-22T08:34:30;100638.03;;;9.79;100.00
48077;BME280;33854;57.708;12.008;2022-10-22T08:36:55;100631.22;;;9.77;100.00
48077;BME280;33854;57.708;12.008;2022-10-22T08:39:20;100628.75;;;9.73;100.00
48077;BME280;33854;57.708;12.008;2022-10-22T08:42:06;100629.47;;;9.77;100.00
48077;BME280;33854;57.708;12.008;2022-10-22T08:49:43;100620.38;;;9.86;100.00
48077;BME280;33854;57.708;12.008;2022-10-22T08:52:15;100620.31;;;9.87;100.00
48077;BME280;33854;57.708;12.008;2022-10-22T08:54:52;100616.78;;;9.88;100.00
48077;BME280;33854;57.708;12.008;2022-10-22T09:00:17;100600.44;;;9.85;100.00
48077;BME280;33854;57.708;12.008;2022-10-22T09:08:38;100594.59;;;10.18;100.00
48077;BME280;33854;57.708;12.008;2022-10-22T09:11:27;100602.19;;;10.23;100.00
48077;BME280;33854;57.708;12.008;2022-10-22T09:13:55;100605.50;;;10.26;100.00
48077;BME280;33854;57.708;12.008;2022-10-22T09:16:36;100611.56;;;10.27;100.00
48077;BME280;33854;57.708;12.008;2022-10-22T09:19:19;100609.63;;;10.30;100.00
48077;BME280;33854;57.708;12.008;2022-10-22T09:22:01;100618.78;;;10.39;100.00
48077;BME280;33854;57.708;12.008;2022-10-22T09:27:01;100613.53;;;10.41;100.00
48077;BME280;33854;57.708;12.008;2022-10-22T09:29:36;100637.50;;;10.49;100.00
48077;BME280;33854;57.708;12.008;2022-10-22T09:32:01;100648.81;;;10.48;100.00
48077;BME280;33854;57.708;12.008;2022-10-22T09:34:28;100650.09;;;10.39;100.00
48077;BME280;33854;57.708;12.008;2022-10-22T09:37:06;100676.47;;;10.52;100.00
48077;BME280;33854;57.708;12.008;2022-10-22T09:41:58;100694.03;;;10.48;100.00
48077;BME280;33854;57.708;12.008;2022-10-22T09:44:24;100713.22;;;10.47;100.00
48077;BME280;33854;57.708;12.008;2022-10-22T09:46:50;100722.03;;;10.45;100.00
48077;BME280;33854;57.708;12.008;2022-10-22T09:49:18;100729.09;;;10.43;100.00
48077;BME280;33854;57.708;12.008;2022-10-22T09:51:54;100735.88;;;10.47;100.00
48077;BME280;33854;57.708;12.008;2022-10-22T09:56:56;100751.50;;;10.65;100.00
48077;BME280;33854;57.708;12.008;2022-10-22T09:59:32;100760.06;;;10.50;100.00
48077;BME280;33854;57.708;12.008;2022-10-22T10:02:15;100783.16;;;10.39;100.00
48077;BME280;33854;57.708;12.008;2022-10-22T10:04:49;100787.53;;;10.39;100.00
48077;BME280;33854;57.708;12.008;2022-10-22T10:07:20;100781.97;;;10.46;100.00
48077;BME280;33854;57.708;12.008;2022-10-22T10:09:47;100785.56;;;10.44;100.00
48077;BME280;33854;57.708;12.008;2022-10-22T10:12:33;100785.50;;;10.45;100.00
48077;BME280;33854;57.708;12.008;2022-10-22T10:17:57;100805.09;;;10.54;100.00
48077;BME280;33854;57.708;12.008;2022-10-22T10:23:12;100820.56;;;10.58;100.00
48077;BME280;33854;57.708;12.008;2022-10-22T10:28:33;100839.28;;;10.48;100.00
48077;BME280;33854;57.708;12.008;2022-10-22T10:31:19;100842.63;;;10.51;100.00
48077;BME280;33854;57.708;12.008;2022-10-22T10:33:52;100842.38;;;10.57;100.00
48077;BME280;33854;57.708;12.008;2022-10-22T10:39:19;100846.97;;;10.71;100.00
48077;BME280;33854;57.708;12.008;2022-10-22T10:45:22;100872.81;;;10.57;100.00
48077;BME280;33854;57.708;12.008;2022-10-22T10:48:11;100887.19;;;10.47;100.00
48077;BME280;33854;57.708;12.008;2022-10-22T11:07:14;100859.66;;;10.40;100.00
48077;BME280;33854;57.708;12.008;2022-10-22T11:10:13;100827.97;;;10.28;100.00
48077;BME280;33854;57.708;12.008;2022-10-22T11:12:37;100840.00;;;10.33;100.00
48077;BME280;33854;57.708;12.008;2022-10-22T11:17:39;100836.81;;;10.45;100.00
48077;BME280;33854;57.708;12.008;2022-10-22T11:22:47;100833.91;;;10.52;100.00
48077;BME280;33854;57.708;12.008;2022-10-22T11:25:20;100836.16;;;10.60;100.00
48077;BME280;33854;57.708;12.008;2022-10-22T11:27:52;100834.31;;;10.62;100.00
48077;BME280;33854;57.708;12.008;2022-10-22T11:30:22;100833.13;;;10.69;100.00
48077;BME280;33854;57.708;12.008;2022-10-22T11:32:52;100820.81;;;10.72;100.00
48077;BME280;33854;57.708;12.008;2022-10-22T11:35:21;100823.28;;;10.75;100.00
48077;BME280;33854;57.708;12.008;2022-10-22T11:37:49;100831.97;;;10.76;100.00
48077;BME280;33854;57.708;12.008;2022-10-22T11:40:19;100844.47;;;10.68;100.00
48077;BME280;33854;57.708;12.008;2022-10-22T11:42:49;100843.44;;;10.72;100.00
48077;BME280;33854;57.708;12.008;2022-10-22T11:48:04;100847.50;;;10.79;100.00
48077;BME280;33854;57.708;12.008;2022-10-22T11:50:55;100840.44;;;10.81;100.00
48077;BME280;33854;57.708;12.008;2022-10-22T11:55:52;100853.41;;;10.82;100.00
48077;BME280;33854;57.708;12.008;2022-10-22T12:03:40;100844.47;;;10.68;100.00
48077;BME280;33854;57.708;12.008;2022-10-22T12:11:19;100872.03;;;10.75;100.00
48077;BME280;33854;57.708;12.008;2022-10-22T12:16:37;100881.25;;;10.63;100.00
48077;BME280;33854;57.708;12.008;2022-10-22T12:21:37;100873.16;;;10.69;100.00
48077;BME280;33854;57.708;12.008;2022-10-22T12:24:03;100872.03;;;10.75;100.00
48077;BME280;33854;57.708;12.008;2022-10-22T12:26:31;100876.22;;;10.79;100.00
48077;BME280;33854;57.708;12.008;2022-10-22T12:29:00;100873.50;;;10.80;100.00
48077;BME280;33854;57.708;12.008;2022-10-22T12:31:26;100883.19;;;10.78;100.00
48077;BME280;33854;57.708;12.008;2022-10-22T12:33:59;100883.25;;;10.77;100.00
48077;BME280;33854;57.708;12.008;2022-10-22T12:36:26;100885.72;;;10.80;100.00
48077;BME280;33854;57.708;12.008;2022-10-22T12:38:52;100893.69;;;10.77;100.00
48077;BME280;33854;57.708;12.008;2022-10-22T12:41:19;100889.09;;;10.82;100.00
48077;BME280;33854;57.708;12.008;2022-10-22T12:43:45;100889.44;;;10.74;100.00
48077;BME280;33854;57.708;12.008;2022-10-22T12:46:12;100914.50;;;10.78;100.00
48077;BME280;33854;57.708;12.008;2022-10-22T12:48:43;100908.34;;;10.79;100.00
48077;BME280;33854;57.708;12.008;2022-10-22T12:51:18;100915.50;;;10.76;100.00
48077;BME280;33854;57.708;12.008;2022-10-22T12:53:49;100918.88;;;10.78;100.00
48077;BME280;33854;57.708;12.008;2022-10-22T12:56:31;100934.47;;;10.79;100.00
48077;BME280;33854;57.708;12.008;2022-10-22T12:59:06;100935.06;;;10.66;100.00
48077;BME280;33854;57.708;12.008;2022-10-22T13:01:38;100936.56;;;10.71;100.00
48077;BME280;33854;57.708;12.008;2022-10-22T13:07:05;100925.47;;;10.66;100.00
48077;BME280;33854;57.708;12.008;2022-10-22T13:09:56;100937.47;;;10.70;100.00
48077;BME280;33854;57.708;12.008;2022-10-22T13:12:27;100926.97;;;10.72;100.00
48077;BME280;33854;57.708;12.008;2022-10-22T13:15:16;100931.97;;;10.76;100.00
48077;BME280;33854;57.708;12.008;2022-10-22T13:17:42;100944.38;;;10.71;100.00
48077;BME280;33854;57.708;12.008;2022-10-22T13:20:20;100939.56;;;10.62;100.00
48077;BME280;33854;57.708;12.008;2022-10-22T13:25:34;100935.94;;;10.85;100.00
48077;BME280;33854;57.708;12.008;2022-10-22T13:28:21;100940.53;;;10.80;100.00
48077;BME280;33854;57.708;12.008;2022-10-22T13:30:57;100938.06;;;10.77;100.00
48077;BME280;33854;57.708;12.008;2022-10-22T13:33:28;100929.25;;;10.79;100.00
48077;BME280;33854;57.708;12.008;2022-10-22T13:35:55;100918.88;;;10.78;100.00
48077;BME280;33854;57.708;12.008;2022-10-22T13:38:21;100929.69;;;10.89;100.00
48077;BME280;33854;57.708;12.008;2022-10-22T13:40:48;100932.09;;;10.94;100.00
48077;BME280;33854;57.708;12.008;2022-10-22T13:43:14;100930.19;;;10.97;100.00
48077;BME280;33854;57.708;12.008;2022-10-22T13:45:40;100932.09;;;10.94;100.00
48077;BME280;33854;57.708;12.008;2022-10-22T13:48:12;100933.44;;;10.83;100.00
48077;BME280;33854;57.708;12.008;2022-10-22T13:50:38;100948.38;;;10.80;100.00
48077;BME280;33854;57.708;12.008;2022-10-22T13:53:03;100941.00;;;10.69;100.00
48077;BME280;33854;57.708;12.008;2022-10-22T13:55:30;100942.91;;;10.66;100.00
48077;BME280;33854;57.708;12.008;2022-10-22T13:57:58;100935.59;;;10.54;100.00
48077;BME280;33854;57.708;12.008;2022-10-22T14:00:25;100921.41;;;10.59;100.00
48077;BME280;33854;57.708;12.008;2022-10-22T14:02:53;100913.03;;;10.53;100.00
48077;BME280;33854;57.708;12.008;2022-10-22T14:05:21;100917.19;;;10.57;100.00
48077;BME280;33854;57.708;12.008;2022-10-22T14:07:46;100909.22;;;10.60;100.00
48077;BME280;33854;57.708;12.008;2022-10-22T14:10:22;100904.22;;;10.55;100.00
48077;BME280;33854;57.708;12.008;2022-10-22T14:12:49;100892.16;;;10.53;100.00
48077;BME280;33854;57.708;12.008;2022-10-22T14:15:15;100893.13;;;10.50;100.00
48077;BME280;33854;57.708;12.008;2022-10-22T14:17:44;100882.03;;;10.45;100.00
48077;BME280;33854;57.708;12.008;2022-10-22T14:20:21;100876.81;;;10.45;100.00
48077;BME280;33854;57.708;12.008;2022-10-22T14:22:49;100875.91;;;10.46;100.00
48077;BME280;33854;57.708;12.008;2022-10-22T14:25:17;100865.53;;;10.45;100.00
48077;BME280;33854;57.708;12.008;2022-10-22T14:27:43;100867.22;;;10.46;100.00
48077;BME280;33854;57.708;12.008;2022-10-22T14:30:13;100866.31;;;10.47;100.00
48077;BME280;33854;57.708;12.008;2022-10-22T14:32:39;100857.91;;;10.40;100.00